createdAt,value
2022-12-22T00:01:34.008Z,10.20
2022-12-22T00:04:19.157Z,10.20
2022-12-22T00:07:04.630Z,10.20
2022-12-22T00:09:49.791Z,10.20
2022-12-22T00:12:35.775Z,10.20
2022-12-22T00:15:21.938Z,10.20
2022-12-22T00:18:08.849Z,10.20
2022-12-22T00:20:53.932Z,10.20
2022-12-22T00:23:39.161Z,10.10
2022-12-22T00:26:24.307Z,10.10
2022-12-22T00:29:09.341Z,10.10
2022-12-22T00:31:54.539Z,10.10
2022-12-22T00:34:41.445Z,10.10
2022-12-22T00:37:29.206Z,10.00
2022-12-22T00:40:14.389Z,10.10
2022-12-22T00:42:59.582Z,10.10
2022-12-22T00:45:44.849Z,10.10
2022-12-22T00:48:38.483Z,10.00
2022-12-22T00:51:25.631Z,10.00
2022-12-22T00:54:10.744Z,10.00
2022-12-22T00:56:55.809Z,10.10
2022-12-22T00:59:41.455Z,10.10
2022-12-22T01:02:26.840Z,10.10
2022-12-22T01:05:12.035Z,10.10
2022-12-22T01:07:58.860Z,10.10
2022-12-22T01:10:44.942Z,10.10
2022-12-22T01:13:30.471Z,10.10
2022-12-22T01:16:15.721Z,10.10
2022-12-22T01:19:01.108Z,10.10
2022-12-22T01:21:46.266Z,10.10
2022-12-22T01:24:33.102Z,10.20
2022-12-22T01:27:18.453Z,10.20
2022-12-22T01:30:03.657Z,10.20
2022-12-22T01:32:49.152Z,10.20
2022-12-22T01:35:36.745Z,10.10
2022-12-22T01:38:21.954Z,10.20
2022-12-22T01:41:08.636Z,10.20
2022-12-22T01:43:54.298Z,10.20
2022-12-22T01:46:40.483Z,10.20
2022-12-22T01:49:27.495Z,10.20
2022-12-22T01:52:12.599Z,10.20
2022-12-22T01:54:58.368Z,10.20
2022-12-22T01:57:45.288Z,10.20
2022-12-22T02:00:31.023Z,10.20
2022-12-22T02:03:16.075Z,10.30
2022-12-22T02:06:07.376Z,10.20
2022-12-22T02:08:58.524Z,10.30
2022-12-22T02:11:48.701Z,10.30
2022-12-22T02:14:40.505Z,10.20
2022-12-22T02:17:29.644Z,10.20
2022-12-22T02:20:29.830Z,10.20
2022-12-22T02:23:19.617Z,10.20
2022-12-22T02:26:08.709Z,10.20
2022-12-22T02:28:55.642Z,10.10
2022-12-22T02:31:40.740Z,10.20
2022-12-22T02:34:31.163Z,10.20
2022-12-22T02:37:21.159Z,10.20
2022-12-22T02:40:11.136Z,10.20
2022-12-22T02:43:00.872Z,10.10
2022-12-22T02:45:52.760Z,10.20
2022-12-22T02:48:41.033Z,10.10
2022-12-22T02:51:28.436Z,10.20
2022-12-22T02:54:14.578Z,10.20
2022-12-22T02:57:00.282Z,10.20
2022-12-22T02:59:45.583Z,10.20
2022-12-22T03:02:32.534Z,10.20
2022-12-22T03:05:18.014Z,10.20
2022-12-22T03:08:08.161Z,10.20
2022-12-22T03:10:53.558Z,10.20
2022-12-22T03:13:38.642Z,10.20
2022-12-22T03:16:23.751Z,10.10
2022-12-22T03:19:10.482Z,10.10
2022-12-22T03:21:55.652Z,10.00
2022-12-22T03:24:40.823Z,10.10
2022-12-22T03:27:08.735Z,10.10
2022-12-22T03:29:36.627Z,10.10
2022-12-22T03:32:04.614Z,10.10
2022-12-22T03:34:33.830Z,10.10
2022-12-22T03:37:01.779Z,10.10
2022-12-22T03:39:29.611Z,10.00
2022-12-22T03:42:15.152Z,10.00
2022-12-22T03:44:56.897Z,10.00
2022-12-22T03:47:24.778Z,10.00
2022-12-22T03:49:53.983Z,10.00
2022-12-22T03:52:21.850Z,10.00
2022-12-22T03:54:49.761Z,9.90
2022-12-22T03:57:17.593Z,9.90
2022-12-22T03:59:45.477Z,9.90
2022-12-22T04:02:13.450Z,9.90
2022-12-22T04:04:41.420Z,9.90
2022-12-22T04:07:10.650Z,9.90
2022-12-22T04:09:58.494Z,9.90
2022-12-22T04:12:43.963Z,9.90
2022-12-22T04:15:11.915Z,9.80
2022-12-22T04:17:39.742Z,9.80
2022-12-22T04:20:08.219Z,9.80
2022-12-22T04:22:37.453Z,9.80
2022-12-22T04:25:05.703Z,9.70
2022-12-22T04:27:33.564Z,9.80
2022-12-22T04:30:01.443Z,9.80
2022-12-22T04:32:29.267Z,9.90
2022-12-22T04:34:57.130Z,9.90
2022-12-22T04:37:25.138Z,9.90
2022-12-22T04:39:54.402Z,9.90
2022-12-22T04:42:22.231Z,9.90
2022-12-22T04:44:50.192Z,9.90
2022-12-22T04:47:18.328Z,9.80
2022-12-22T04:49:46.191Z,9.80
2022-12-22T04:52:14.050Z,9.90
2022-12-22T04:54:41.891Z,9.90
2022-12-22T04:57:11.150Z,9.90
2022-12-22T04:59:39.045Z,9.90
2022-12-22T05:02:07.076Z,9.90
2022-12-22T05:04:35.010Z,9.90
2022-12-22T05:07:02.892Z,9.90
2022-12-22T05:09:30.785Z,9.90
2022-12-22T05:11:58.665Z,9.90
2022-12-22T05:14:27.882Z,9.90
2022-12-22T05:16:55.775Z,9.90
2022-12-22T05:19:27.495Z,9.90
2022-12-22T05:21:58.508Z,9.90
2022-12-22T05:24:26.361Z,9.90
2022-12-22T05:26:54.242Z,9.80
2022-12-22T05:29:22.131Z,9.80
2022-12-22T05:31:51.361Z,9.80
2022-12-22T05:34:19.239Z,9.80
2022-12-22T05:36:47.104Z,9.80
2022-12-22T05:39:14.942Z,9.80
2022-12-22T05:41:42.823Z,9.80
2022-12-22T05:44:10.698Z,9.80
2022-12-22T05:46:38.698Z,9.90
2022-12-22T05:49:07.920Z,9.90
2022-12-22T05:51:35.854Z,9.90
2022-12-22T05:54:03.699Z,9.90
2022-12-22T05:56:31.578Z,9.90
2022-12-22T05:58:59.430Z,9.90
2022-12-22T06:01:27.336Z,9.90
2022-12-22T06:04:00.104Z,9.90
2022-12-22T06:06:29.995Z,10.00
2022-12-22T06:08:57.848Z,10.00
2022-12-22T06:11:25.710Z,10.00
2022-12-22T06:13:53.601Z,9.90
2022-12-22T06:16:21.549Z,9.90
2022-12-22T06:18:49.454Z,10.00
2022-12-22T06:21:17.340Z,10.00
2022-12-22T06:23:46.931Z,10.10
2022-12-22T06:26:14.857Z,10.00
2022-12-22T06:28:42.734Z,10.00
2022-12-22T06:31:10.630Z,10.00
2022-12-22T06:33:38.555Z,10.00
2022-12-22T06:36:06.629Z,10.00
2022-12-22T06:38:34.573Z,10.00
2022-12-22T06:41:04.076Z,10.00
2022-12-22T06:43:31.048Z,10.00
2022-12-22T06:45:58.922Z,10.00
2022-12-22T06:48:26.923Z,10.00
2022-12-22T06:50:58.466Z,10.00
2022-12-22T06:53:26.424Z,10.00
2022-12-22T06:55:54.314Z,10.00
2022-12-22T06:58:23.555Z,10.00
2022-12-22T07:00:51.422Z,10.00
2022-12-22T07:03:19.518Z,9.90
2022-12-22T07:05:47.537Z,9.90
2022-12-22T07:08:15.386Z,9.90
2022-12-22T07:11:01.450Z,9.90
2022-12-22T07:13:31.917Z,9.90
2022-12-22T07:16:01.395Z,9.70
2022-12-22T07:18:30.493Z,9.90
2022-12-22T07:20:58.724Z,9.90
2022-12-22T07:23:26.823Z,9.90
2022-12-22T07:25:54.739Z,9.90
2022-12-22T07:28:22.714Z,9.90
2022-12-22T07:30:52.335Z,10.10
2022-12-22T07:33:20.238Z,9.90
2022-12-22T07:35:48.110Z,9.90
2022-12-22T07:38:15.987Z,10.00
2022-12-22T07:40:47.976Z,9.90
2022-12-22T07:43:18.611Z,9.90
2022-12-22T07:45:46.498Z,9.90
2022-12-22T07:48:32.918Z,9.90
2022-12-22T07:51:03.070Z,9.80
2022-12-22T07:53:30.985Z,9.80
2022-12-22T07:56:02.285Z,9.80
2022-12-22T07:58:30.180Z,9.80
2022-12-22T08:00:58.793Z,9.80
2022-12-22T08:03:28.612Z,9.80
2022-12-22T08:05:56.577Z,9.90
2022-12-22T08:08:24.427Z,9.80
2022-12-22T08:10:52.310Z,9.70
2022-12-22T08:13:20.447Z,9.80
2022-12-22T08:15:48.527Z,9.80
2022-12-22T08:18:16.455Z,9.80
2022-12-22T08:20:50.799Z,9.80
2022-12-22T08:23:18.717Z,9.80
2022-12-22T08:25:47.135Z,9.80
2022-12-22T08:28:17.147Z,9.80
2022-12-22T08:30:45.249Z,9.70
2022-12-22T08:33:13.118Z,9.70
2022-12-22T08:35:41.041Z,9.70
2022-12-22T08:38:11.927Z,9.80
2022-12-22T08:40:39.928Z,9.80
2022-12-22T08:43:09.877Z,9.90
2022-12-22T08:45:37.757Z,9.90
2022-12-22T08:48:05.855Z,9.80
2022-12-22T08:50:33.742Z,9.80
2022-12-22T08:53:03.177Z,9.80
2022-12-22T08:55:32.415Z,9.80
2022-12-22T08:58:00.276Z,9.90
2022-12-22T09:00:28.424Z,9.90
2022-12-22T09:02:56.388Z,9.90
2022-12-22T09:05:24.328Z,9.90
2022-12-22T09:07:52.232Z,9.90
2022-12-22T09:10:20.263Z,10.00
2022-12-22T09:12:51.413Z,10.10
2022-12-22T09:15:19.437Z,10.00
2022-12-22T09:17:48.336Z,10.00
2022-12-22T09:20:16.354Z,10.00
2022-12-22T09:22:44.287Z,10.00
2022-12-22T09:25:14.256Z,10.00
2022-12-22T09:27:42.114Z,10.00
2022-12-22T09:30:12.037Z,10.00
2022-12-22T09:32:40.024Z,9.90
2022-12-22T09:35:08.297Z,9.90
2022-12-22T09:37:36.147Z,9.90
2022-12-22T09:40:04.126Z,9.90
2022-12-22T09:42:34.015Z,9.90
2022-12-22T09:45:01.932Z,9.90
2022-12-22T09:47:33.519Z,9.80
2022-12-22T09:50:01.384Z,9.80
2022-12-22T09:52:39.542Z,9.90
2022-12-22T09:55:14.037Z,9.90
2022-12-22T09:57:41.929Z,9.90
2022-12-22T10:00:14.386Z,9.90
2022-12-22T10:02:48.368Z,10.10
2022-12-22T10:05:28.219Z,10.30
2022-12-22T10:08:00.688Z,10.40
2022-12-22T10:10:29.552Z,10.40
2022-12-22T10:12:58.557Z,10.30
2022-12-22T10:15:26.549Z,10.30
2022-12-22T10:18:08.983Z,10.30
2022-12-22T10:20:38.453Z,10.20
2022-12-22T10:23:14.691Z,10.30
2022-12-22T10:28:36.014Z,10.50
2022-12-22T10:31:11.656Z,10.40
2022-12-22T10:33:46.647Z,10.40
2022-12-22T10:36:15.693Z,10.40
2022-12-22T10:38:54.538Z,10.40
2022-12-22T10:41:23.575Z,10.40
2022-12-22T10:43:52.183Z,10.40
2022-12-22T10:46:20.866Z,10.50
2022-12-22T10:48:50.193Z,10.50
2022-12-22T10:51:18.079Z,10.50
2022-12-22T10:53:47.766Z,10.60
2022-12-22T10:56:23.407Z,10.50
2022-12-22T10:58:52.691Z,10.50
2022-12-22T11:01:28.511Z,10.50
2022-12-22T11:03:58.199Z,10.50
2022-12-22T11:06:26.176Z,10.70
2022-12-22T11:08:58.203Z,10.60
2022-12-22T11:11:40.907Z,10.60
2022-12-22T11:14:16.226Z,10.50
2022-12-22T11:16:48.028Z,10.60
2022-12-22T11:19:36.914Z,10.60
2022-12-22T11:22:10.055Z,10.70
2022-12-22T11:24:41.391Z,10.70
2022-12-22T11:27:17.765Z,10.70
2022-12-22T11:29:58.055Z,10.60
2022-12-22T11:32:33.188Z,10.40
2022-12-22T11:35:05.849Z,10.20
2022-12-22T11:37:39.615Z,10.20
2022-12-22T11:40:16.008Z,10.30
2022-12-22T11:42:53.096Z,10.30
2022-12-22T11:45:29.464Z,10.30
2022-12-22T11:48:02.714Z,10.40
2022-12-22T11:50:58.826Z,10.30
2022-12-22T11:53:33.142Z,10.20
2022-12-22T11:56:06.568Z,10.20
2022-12-22T11:58:43.356Z,10.10
2022-12-22T12:01:25.645Z,10.30
2022-12-22T12:04:08.901Z,10.40
2022-12-22T12:06:41.956Z,10.40
2022-12-22T12:09:18.722Z,10.40
2022-12-22T12:11:50.076Z,10.40
2022-12-22T12:14:21.278Z,10.50
2022-12-22T12:16:52.763Z,10.40
2022-12-22T12:19:43.087Z,10.50
2022-12-22T12:22:15.394Z,10.40
2022-12-22T12:24:54.738Z,10.60
2022-12-22T12:27:31.252Z,10.60
2022-12-22T12:30:36.235Z,10.80
2022-12-22T12:32:51.960Z,10.80
2022-12-22T12:35:28.377Z,11.00
2022-12-22T12:37:58.939Z,11.00
2022-12-22T12:40:33.527Z,11.00
2022-12-22T12:43:01.788Z,11.50
2022-12-22T12:45:37.391Z,11.70
2022-12-22T12:48:32.404Z,11.60
2022-12-22T12:51:00.441Z,11.30
2022-12-22T12:53:28.789Z,11.30
2022-12-22T12:55:59.564Z,11.20
2022-12-22T12:58:46.511Z,11.20
2022-12-22T13:01:34.490Z,11.20
2022-12-22T13:04:05.588Z,11.20
2022-12-22T13:06:51.562Z,11.20
2022-12-22T13:12:24.877Z,11.00
2022-12-22T13:14:57.913Z,10.90
2022-12-22T13:17:35.582Z,10.90
2022-12-22T13:20:03.916Z,10.80
2022-12-22T13:22:31.838Z,10.80
2022-12-22T13:25:00.446Z,10.90
2022-12-22T13:27:28.442Z,10.80
2022-12-22T13:29:57.889Z,10.80
2022-12-22T13:32:28.152Z,10.70
2022-12-22T13:35:30.317Z,10.60
2022-12-22T13:37:51.513Z,10.60
2022-12-22T13:40:20.566Z,10.60
2022-12-22T13:42:50.352Z,10.50
2022-12-22T13:45:26.725Z,10.40
2022-12-22T13:47:54.640Z,10.40
2022-12-22T13:50:24.961Z,10.40
2022-12-22T13:52:53.567Z,10.20
2022-12-22T13:55:24.601Z,10.20
2022-12-22T13:57:58.163Z,10.10
2022-12-22T14:00:29.580Z,10.10
2022-12-22T14:02:57.691Z,10.10
2022-12-22T14:05:30.785Z,10.00
2022-12-22T14:07:59.744Z,10.00
2022-12-22T14:10:28.830Z,10.00
2022-12-22T14:12:56.776Z,10.00
2022-12-22T14:15:24.678Z,9.90
2022-12-22T14:17:53.965Z,10.00
2022-12-22T14:20:24.363Z,10.00
2022-12-22T14:22:54.670Z,10.00
2022-12-22T14:25:24.418Z,10.00
2022-12-22T14:27:54.594Z,10.00
2022-12-22T14:30:24.405Z,10.00
2022-12-22T14:32:55.368Z,10.00
2022-12-22T14:35:31.224Z,10.00
2022-12-22T14:38:15.493Z,10.00
2022-12-22T14:40:44.665Z,10.00
2022-12-22T14:43:24.460Z,10.10
2022-12-22T14:45:53.348Z,10.00
2022-12-22T14:48:24.991Z,10.00
2022-12-22T14:50:54.963Z,10.10
2022-12-22T14:53:24.929Z,10.00
2022-12-22T14:55:53.272Z,10.10
2022-12-22T14:58:22.709Z,10.10
2022-12-22T15:01:10.654Z,10.10
2022-12-22T15:03:40.242Z,10.10
2022-12-22T15:06:25.993Z,10.10
2022-12-22T15:08:54.913Z,10.20
2022-12-22T15:11:24.497Z,10.20
2022-12-22T15:13:52.773Z,10.20
2022-12-22T15:16:22.436Z,10.20
2022-12-22T15:18:50.830Z,10.20
2022-12-22T15:21:19.747Z,10.20
2022-12-22T15:23:48.972Z,10.20
2022-12-22T15:26:16.846Z,10.20
2022-12-22T15:28:44.802Z,10.30
2022-12-22T15:31:14.115Z,10.20
2022-12-22T15:33:42.366Z,10.20
2022-12-22T15:36:10.930Z,10.30
2022-12-22T15:38:39.545Z,10.30
2022-12-22T15:41:09.045Z,10.30
2022-12-22T15:43:57.065Z,10.30
2022-12-22T15:46:25.080Z,10.30
2022-12-22T15:48:53.577Z,10.30
2022-12-22T15:51:23.556Z,10.40
2022-12-22T15:53:51.738Z,10.40
2022-12-22T15:56:22.101Z,10.30
2022-12-22T15:58:50.146Z,10.40
2022-12-22T16:01:18.097Z,10.40
2022-12-22T16:03:46.102Z,10.40
2022-12-22T16:06:14.936Z,10.40
2022-12-22T16:08:45.887Z,10.40
2022-12-22T16:11:14.056Z,10.40
2022-12-22T16:13:43.351Z,10.40
2022-12-22T16:16:11.829Z,10.40
2022-12-22T16:18:39.737Z,10.40
2022-12-22T16:21:09.164Z,10.40
2022-12-22T16:23:37.362Z,10.40
2022-12-22T16:26:05.875Z,10.50
2022-12-22T16:28:34.026Z,10.50
2022-12-22T16:31:03.293Z,10.50
2022-12-22T16:33:31.171Z,10.50
2022-12-22T16:35:59.078Z,10.50
2022-12-22T16:38:26.901Z,10.50
2022-12-22T16:40:54.967Z,10.50
2022-12-22T16:46:14.017Z,10.60
2022-12-22T16:48:43.823Z,10.60
2022-12-22T16:51:15.809Z,10.60
2022-12-22T16:53:43.768Z,10.60
2022-12-22T16:56:13.776Z,10.60
2022-12-22T16:58:41.625Z,10.60
2022-12-22T17:01:09.624Z,10.70
2022-12-22T17:03:41.809Z,10.70
2022-12-22T17:06:11.612Z,10.70
2022-12-22T17:08:40.514Z,10.70
2022-12-22T17:11:11.114Z,10.70
2022-12-22T17:13:39.840Z,10.70
2022-12-22T17:16:07.935Z,10.70
2022-12-22T17:18:36.328Z,10.70
2022-12-22T17:21:05.835Z,10.80
2022-12-22T17:23:34.955Z,10.70
2022-12-22T17:26:04.575Z,10.70
2022-12-22T17:28:33.317Z,10.80
2022-12-22T17:31:01.269Z,10.80
2022-12-22T17:33:29.151Z,10.80
2022-12-22T17:35:57.615Z,10.90
2022-12-22T17:38:28.940Z,10.90
2022-12-22T17:40:57.653Z,10.80
2022-12-22T17:43:25.693Z,10.90
2022-12-22T17:45:54.055Z,10.90
2022-12-22T17:48:21.960Z,10.90
2022-12-22T17:50:50.444Z,11.00
2022-12-22T17:53:19.957Z,11.00
2022-12-22T17:56:07.818Z,11.00
2022-12-22T18:01:06.962Z,11.20
2022-12-22T18:03:34.900Z,11.00
2022-12-22T18:06:02.770Z,11.10
2022-12-22T18:08:30.661Z,11.10
2022-12-22T18:10:59.919Z,11.10
2022-12-22T18:13:27.882Z,11.30
2022-12-22T18:15:55.949Z,11.10
2022-12-22T18:18:24.282Z,11.20
2022-12-22T18:21:06.059Z,11.20
2022-12-22T18:23:35.909Z,11.20
2022-12-22T18:26:05.419Z,11.20
2022-12-22T18:28:33.298Z,11.40
2022-12-22T18:31:01.246Z,11.20
2022-12-22T18:33:29.122Z,11.20
2022-12-22T18:35:58.580Z,11.20
2022-12-22T18:38:28.203Z,11.20
2022-12-22T18:40:56.101Z,11.20
2022-12-22T18:43:25.393Z,11.10
2022-12-22T18:45:53.268Z,11.20
2022-12-22T18:48:21.155Z,11.20
2022-12-22T18:50:49.114Z,11.20
2022-12-22T18:53:20.690Z,11.10
2022-12-22T18:55:51.142Z,11.70
2022-12-22T19:00:48.795Z,11.10
2022-12-22T19:03:18.448Z,11.10
2022-12-22T19:05:47.617Z,11.10
2022-12-22T19:08:16.553Z,11.10
2022-12-22T19:10:46.279Z,11.00
2022-12-22T19:13:20.355Z,11.00
2022-12-22T19:15:50.044Z,11.10
2022-12-22T19:18:24.315Z,11.00
2022-12-22T19:20:54.313Z,11.10
2022-12-22T19:23:23.272Z,11.10
2022-12-22T19:25:52.549Z,11.10
2022-12-22T19:28:24.805Z,11.00
2022-12-22T19:30:54.124Z,11.00
2022-12-22T19:33:24.384Z,11.00
2022-12-22T19:35:52.243Z,10.90
2022-12-22T19:38:30.766Z,11.00
2022-12-22T19:41:00.322Z,11.00
2022-12-22T19:43:28.495Z,10.90
2022-12-22T19:45:58.260Z,10.90
2022-12-22T19:48:27.001Z,10.90
2022-12-22T19:50:55.115Z,10.90
2022-12-22T19:53:22.979Z,10.90
2022-12-22T19:55:52.857Z,10.90
2022-12-22T19:58:21.871Z,10.90
2022-12-22T20:00:50.044Z,10.90
2022-12-22T20:03:22.419Z,10.80
2022-12-22T20:05:50.452Z,10.80
2022-12-22T20:08:18.365Z,10.80
2022-12-22T20:10:46.974Z,10.90
2022-12-22T20:13:15.911Z,10.80
2022-12-22T20:15:43.941Z,10.90
2022-12-22T20:18:22.631Z,10.90
2022-12-22T20:20:57.395Z,10.90
2022-12-22T20:23:25.775Z,10.90
2022-12-22T20:25:56.229Z,10.90
2022-12-22T20:28:25.187Z,10.90
2022-12-22T20:30:53.235Z,10.80
2022-12-22T20:33:23.241Z,10.80
2022-12-22T20:35:51.985Z,10.90
2022-12-22T20:38:21.191Z,10.80
2022-12-22T20:40:49.623Z,10.80
2022-12-22T20:43:18.829Z,10.80
2022-12-22T20:45:48.449Z,10.80
2022-12-22T20:48:20.979Z,10.70
2022-12-22T20:50:50.232Z,10.80
2022-12-22T20:53:19.302Z,10.70
2022-12-22T20:55:47.546Z,10.70
2022-12-22T20:58:19.186Z,10.80
2022-12-22T21:00:47.057Z,10.80
2022-12-22T21:03:15.024Z,10.70
2022-12-22T21:05:42.980Z,10.70
2022-12-22T21:08:20.223Z,10.70
2022-12-22T21:10:49.566Z,10.70
2022-12-22T21:13:18.008Z,10.70
2022-12-22T21:15:47.348Z,10.70
2022-12-22T21:18:16.155Z,10.70
2022-12-22T21:20:44.724Z,10.70
2022-12-22T21:23:14.122Z,10.70
2022-12-22T21:25:46.768Z,10.70
2022-12-22T21:28:19.965Z,10.70
2022-12-22T21:30:47.876Z,10.70
2022-12-22T21:33:15.798Z,10.70
2022-12-22T21:35:43.727Z,10.70
2022-12-22T21:38:16.095Z,10.70
2022-12-22T21:40:46.854Z,10.70
2022-12-22T21:43:15.230Z,10.70
2022-12-22T21:45:43.779Z,10.70
2022-12-22T21:48:12.837Z,10.70
2022-12-22T21:50:40.767Z,10.70
2022-12-22T21:53:08.860Z,10.60
2022-12-22T21:55:37.820Z,10.60
2022-12-22T21:58:08.022Z,10.60
2022-12-22T22:00:35.839Z,10.70
2022-12-22T22:03:04.414Z,10.60
2022-12-22T22:05:33.924Z,10.60
2022-12-22T22:08:02.237Z,10.70
2022-12-22T22:10:31.826Z,10.60
2022-12-22T22:12:59.821Z,10.70
2022-12-22T22:15:29.863Z,10.70
2022-12-22T22:18:02.939Z,10.70
2022-12-22T22:20:34.644Z,10.70
2022-12-22T22:23:02.609Z,10.80
2022-12-22T22:25:30.445Z,10.70
2022-12-22T22:27:59.779Z,10.80
2022-12-22T22:30:29.088Z,10.70
2022-12-22T22:32:57.375Z,10.70
2022-12-22T22:35:26.003Z,10.70
2022-12-22T22:37:53.904Z,10.70
2022-12-22T22:40:22.513Z,10.80
2022-12-22T22:42:50.404Z,10.70
2022-12-22T22:45:23.018Z,10.70
2022-12-22T22:47:52.804Z,10.70
2022-12-22T22:50:21.040Z,10.70
2022-12-22T22:52:48.945Z,10.70
2022-12-22T22:55:17.091Z,10.80
2022-12-22T22:57:44.983Z,10.80
2022-12-22T23:00:14.856Z,10.70
2022-12-22T23:02:43.313Z,10.80
2022-12-22T23:05:18.779Z,10.80
2022-12-22T23:07:50.488Z,10.80
2022-12-22T23:10:18.540Z,10.80
2022-12-22T23:12:46.399Z,10.80
2022-12-22T23:15:14.364Z,10.80
2022-12-22T23:17:42.223Z,10.80
2022-12-22T23:20:10.257Z,10.80
2022-12-22T23:22:39.451Z,10.80
2022-12-22T23:25:08.023Z,10.70
2022-12-22T23:27:35.898Z,10.80
2022-12-22T23:30:03.812Z,10.80
2022-12-22T23:32:31.695Z,10.80
2022-12-22T23:34:59.563Z,10.80
2022-12-22T23:37:27.423Z,10.80
2022-12-22T23:40:10.881Z,10.80
2022-12-22T23:42:44.492Z,10.80
2022-12-22T23:45:12.328Z,10.80
2022-12-22T23:47:40.182Z,10.80
2022-12-22T23:50:08.800Z,10.80
2022-12-22T23:52:36.671Z,10.80
2022-12-22T23:55:06.449Z,10.70
2022-12-22T23:57:34.325Z,10.80
